Time;durP1;ratioP1;P1;durP2;ratioP2;P2;SDS_P1;SDS_P2;PMS_P1;PMS_P2;Temp;Humidity;BMP_temperature;BMP_pressure;BME280_temperature;BME280_humidity;BME280_pressure;Samples;Min_cycle;Max_cycle;Signal;HPM_P1;HPM_P2
2021/08/13 00:02:19;;;;;;;11.43;10.23;;;14.00;99.90;;;;;;5075906;28;20052;-86
2021/08/13 00:04:46;;;;;;;11.65;9.40;;;14.00;99.90;;;;;;5075158;28;20411;-86
2021/08/13 00:07:12;;;;;;;12.63;10.32;;;14.00;99.90;;;;;;5075178;28;20101;-86
2021/08/13 00:09:40;;;;;;;10.68;9.57;;;13.90;99.90;;;;;;5075968;28;20444;-87
2021/08/13 00:12:08;;;;;;;14.52;10.50;;;13.90;99.90;;;;;;5078830;28;20492;-86
2021/08/13 00:14:35;;;;;;;13.10;10.20;;;13.80;99.90;;;;;;5078408;28;20131;-86
2021/08/13 00:17:02;;;;;;;13.50;9.75;;;13.80;99.90;;;;;;5078837;28;20051;-86
2021/08/13 00:19:29;;;;;;;13.98;9.30;;;13.70;99.90;;;;;;5078826;28;20040;-86
2021/08/13 00:21:56;;;;;;;10.40;9.35;;;13.60;99.90;;;;;;5078810;28;20048;-85
2021/08/13 00:24:23;;;;;;;13.48;9.57;;;13.50;99.90;;;;;;5078541;28;20494;-87
2021/08/13 00:26:49;;;;;;;16.13;10.15;;;13.40;99.90;;;;;;5096314;28;20135;-86
2021/08/13 00:29:16;;;;;;;11.77;9.85;;;13.50;99.90;;;;;;5078758;28;20078;-86
2021/08/13 00:31:43;;;;;;;11.75;9.27;;;13.50;99.90;;;;;;5078451;28;20048;-86
2021/08/13 00:34:10;;;;;;;13.13;10.27;;;13.50;99.90;;;;;;5096198;28;20048;-86
2021/08/13 00:36:36;;;;;;;11.13;9.30;;;13.50;99.90;;;;;;5077201;28;20052;-86
2021/08/13 00:39:03;;;;;;;12.30;9.95;;;13.50;99.90;;;;;;5077966;28;20514;-86
2021/08/13 00:41:30;;;;;;;12.27;9.50;;;13.50;99.90;;;;;;5078037;28;20058;-86
2021/08/13 00:43:57;;;;;;;11.93;9.32;;;13.50;99.90;;;;;;5078098;28;20048;-86
2021/08/13 00:46:24;;;;;;;10.40;9.23;;;13.50;99.90;;;;;;5077886;28;20453;-86
2021/08/13 00:48:51;;;;;;;13.70;9.70;;;13.50;99.90;;;;;;5078240;28;20041;-86
2021/08/13 00:51:18;;;;;;;10.85;9.50;;;13.40;99.90;;;;;;5078295;28;20480;-86
2021/08/13 00:53:45;;;;;;;10.68;9.35;;;13.40;99.90;;;;;;5077932;28;20415;-86
2021/08/13 00:56:12;;;;;;;10.18;9.10;;;13.40;99.90;;;;;;5077886;28;20206;-86
2021/08/13 00:58:39;;;;;;;9.98;8.90;;;13.30;99.90;;;;;;5078202;28;20129;-86
2021/08/13 01:01:06;;;;;;;9.80;8.65;;;13.20;99.90;;;;;;5095315;28;20106;-86
2021/08/13 01:03:33;;;;;;;12.90;9.27;;;13.10;99.90;;;;;;5078008;28;20132;-86
2021/08/13 01:06:00;;;;;;;11.48;9.73;;;13.00;99.90;;;;;;5095674;28;20058;-86
2021/08/13 01:08:27;;;;;;;12.70;9.32;;;13.00;99.90;;;;;;5079110;28;20135;-87
2021/08/13 01:11:19;;;;;;;11.52;10.07;;;13.00;99.90;;;;;;5089096;28;20131;-86
2021/08/13 01:14:16;;;;;;;14.30;9.48;;;12.90;99.90;;;;;;5096970;28;20074;-86
2021/08/13 01:16:47;;;;;;;12.27;10.10;;;12.80;99.90;;;;;;5077285;28;20051;-86
2021/08/13 01:19:33;;;;;;;14.18;11.70;;;12.80;99.90;;;;;;5078091;28;20492;-86
2021/08/13 01:22:06;;;;;;;14.52;10.90;;;12.70;99.90;;;;;;5095083;28;20066;-86
2021/08/13 01:24:36;;;;;;;13.68;10.95;;;12.70;99.90;;;;;;5077523;28;20058;-86
2021/08/13 01:27:09;;;;;;;12.60;9.60;;;12.70;99.90;;;;;;5077306;28;20048;-86
2021/08/13 01:30:01;;;;;;;13.57;10.05;;;12.70;99.90;;;;;;5077498;28;20058;-86
2021/08/13 01:32:32;;;;;;;11.70;9.80;;;12.60;99.90;;;;;;5079781;28;20478;-86
2021/08/13 01:35:09;;;;;;;13.45;9.55;;;12.60;99.90;;;;;;5079755;28;20056;-86
2021/08/13 01:37:42;;;;;;;13.15;10.70;;;12.60;99.90;;;;;;5097888;28;20135;-87
2021/08/13 01:40:11;;;;;;;13.43;10.75;;;12.50;99.90;;;;;;5078551;28;20075;-87
2021/08/13 01:42:39;;;;;;;17.60;11.80;;;12.40;99.90;;;;;;5077211;28;20074;-87
2021/08/13 01:45:08;;;;;;;16.25;11.57;;;12.40;99.90;;;;;;5077208;28;20044;-87
2021/08/13 01:47:36;;;;;;;17.83;11.93;;;12.40;99.90;;;;;;5077314;28;20054;-86
2021/08/13 01:50:04;;;;;;;12.85;11.20;;;12.40;99.90;;;;;;5094789;28;20412;-86
2021/08/13 01:52:31;;;;;;;20.73;12.55;;;12.50;99.90;;;;;;5077359;28;20087;-86
2021/08/13 01:54:58;;;;;;;16.17;12.23;;;12.60;99.90;;;;;;5094828;28;20488;-86
2021/08/13 01:57:25;;;;;;;16.35;11.50;;;12.60;99.90;;;;;;5077359;28;20101;-86
2021/08/13 01:59:53;;;;;;;18.63;11.80;;;12.50;99.90;;;;;;5076743;28;20040;-86
2021/08/13 02:02:20;;;;;;;18.85;12.10;;;12.50;99.90;;;;;;5076908;28;20075;-87
2021/08/13 02:04:48;;;;;;;16.13;12.95;;;12.40;99.90;;;;;;5076645;28;20048;-86
2021/08/13 02:07:16;;;;;;;13.18;11.65;;;12.40;99.90;;;;;;5076865;28;20048;-87
2021/08/13 02:09:44;;;;;;;17.23;13.15;;;12.40;99.90;;;;;;5076671;28;20076;-86
2021/08/13 02:12:12;;;;;;;17.38;11.70;;;12.30;99.90;;;;;;5076420;28;20062;-87
2021/08/13 02:14:39;;;;;;;14.35;12.07;;;12.40;99.90;;;;;;5076174;28;20052;-86
2021/08/13 02:17:16;;;;;;;16.77;12.07;;;12.40;99.90;;;;;;5076473;28;20052;-85
2021/08/13 02:19:51;;;;;;;13.48;11.23;;;12.30;99.90;;;;;;5076690;28;20044;-86
2021/08/13 02:22:18;;;;;;;16.08;10.38;;;12.30;99.90;;;;;;5076444;28;20492;-87
2021/08/13 02:24:45;;;;;;;15.85;10.82;;;12.30;99.90;;;;;;5076261;28;20309;-86
2021/08/13 02:27:12;;;;;;;13.30;10.57;;;12.30;99.90;;;;;;5096677;28;20135;-86
2021/08/13 02:29:39;;;;;;;14.50;10.20;;;12.30;99.90;;;;;;5088919;28;20048;-86
2021/08/13 02:32:07;;;;;;;12.48;11.02;;;12.30;99.90;;;;;;5078391;28;20135;-86
2021/08/13 02:34:33;;;;;;;11.63;10.40;;;12.20;99.90;;;;;;5094000;28;20054;-86
2021/08/13 02:37:18;;;;;;;16.27;10.98;;;12.20;99.90;;;;;;5076073;28;20060;-86
2021/08/13 02:39:53;;;;;;;13.43;10.50;;;12.10;99.90;;;;;;5093948;28;20059;-86
2021/08/13 02:42:32;;;;;;;13.57;10.95;;;12.20;99.90;;;;;;5076118;28;20095;-86
2021/08/13 02:45:00;;;;;;;15.20;11.07;;;12.10;99.90;;;;;;5075992;28;20048;-86
2021/08/13 02:47:29;;;;;;;17.15;12.63;;;12.00;99.90;;;;;;5076203;28;20136;-86
2021/08/13 02:50:01;;;;;;;13.75;10.55;;;11.90;99.90;;;;;;5075956;28;20048;-86
2021/08/13 02:52:39;;;;;;;14.93;11.27;;;11.90;99.90;;;;;;5075972;28;20044;-87
2021/08/13 02:55:07;;;;;;;14.80;12.05;;;11.90;99.90;;;;;;5075798;28;20054;-86
2021/08/13 02:57:38;;;;;;;15.20;11.55;;;11.90;99.90;;;;;;5075868;28;20056;-87
2021/08/13 03:00:07;;;;;;;15.50;10.82;;;11.90;99.90;;;;;;5075836;28;20051;-86
2021/08/13 03:02:36;;;;;;;12.60;10.27;;;11.90;99.90;;;;;;5093713;28;20076;-87
2021/08/13 03:05:07;;;;;;;13.27;10.68;;;11.90;99.90;;;;;;5093210;28;20549;-86
2021/08/13 03:07:35;;;;;;;15.65;11.43;;;11.90;99.90;;;;;;5075680;28;20500;-86
2021/08/13 03:10:03;;;;;;;14.13;11.15;;;11.90;99.90;;;;;;5075731;28;20135;-86
2021/08/13 03:12:30;;;;;;;18.50;13.32;;;11.80;99.90;;;;;;5075679;28;20052;-86
2021/08/13 03:14:59;;;;;;;21.02;13.43;;;11.70;99.90;;;;;;5075778;28;20047;-86
2021/08/13 03:17:26;;;;;;;15.55;12.30;;;11.70;99.90;;;;;;5076018;28;20067;-86
2021/08/13 03:19:54;;;;;;;15.23;11.63;;;11.70;99.90;;;;;;5093386;28;20448;-86
2021/08/13 03:22:21;;;;;;;14.75;11.40;;;11.80;99.90;;;;;;5075382;28;20484;-86
2021/08/13 03:24:48;;;;;;;16.95;11.23;;;11.70;99.90;;;;;;5093711;28;20044;-86
2021/08/13 03:27:17;;;;;;;17.95;11.48;;;11.70;99.90;;;;;;5093385;28;20052;-86
2021/08/13 03:29:44;;;;;;;11.35;10.18;;;11.60;99.90;;;;;;5075932;28;20048;-86
2021/08/13 03:32:11;;;;;;;12.38;10.68;;;11.60;99.90;;;;;;5093113;28;20048;-86
2021/08/13 03:34:38;;;;;;;15.82;10.88;;;11.60;99.90;;;;;;5075513;28;20078;-86
2021/08/13 03:37:05;;;;;;;12.52;10.70;;;11.50;99.90;;;;;;5093082;28;20056;-86
2021/08/13 03:39:32;;;;;;;11.15;9.95;;;11.50;99.90;;;;;;5075652;28;20048;-86
2021/08/13 03:41:59;;;;;;;14.02;11.48;;;11.60;99.90;;;;;;5075427;28;20415;-86
2021/08/13 03:44:26;;;;;;;13.00;10.50;;;11.50;99.90;;;;;;5075957;28;20056;-86
2021/08/13 03:46:52;;;;;;;12.30;10.60;;;11.50;99.90;;;;;;5086445;28;20044;-86
2021/08/13 03:49:19;;;;;;;15.07;11.88;;;11.50;99.90;;;;;;5106256;28;20519;-86
2021/08/13 03:51:46;;;;;;;14.75;11.15;;;11.40;99.90;;;;;;5079977;28;20117;-85
2021/08/13 03:54:13;;;;;;;16.25;11.80;;;11.40;99.90;;;;;;5097144;28;20052;-86
2021/08/13 03:56:40;;;;;;;17.25;11.95;;;11.40;99.90;;;;;;5097041;28;20072;-86
2021/08/13 03:59:06;;;;;;;12.60;11.30;;;11.40;99.90;;;;;;5079127;28;20476;-86
2021/08/13 04:01:33;;;;;;;17.17;11.75;;;11.40;99.90;;;;;;5079000;28;20044;-86
2021/08/13 04:04:00;;;;;;;19.35;12.13;;;11.40;99.90;;;;;;5079145;28;20044;-86
2021/08/13 04:06:27;;;;;;;14.82;11.30;;;11.40;99.90;;;;;;5079038;28;20075;-86
2021/08/13 04:08:54;;;;;;;16.08;12.70;;;11.40;99.90;;;;;;5079053;28;20131;-87
2021/08/13 04:11:21;;;;;;;18.33;13.55;;;11.30;99.90;;;;;;5079222;28;20407;-86
2021/08/13 04:13:47;;;;;;;20.70;12.43;;;11.20;99.90;;;;;;5078830;28;20048;-86
2021/08/13 04:16:14;;;;;;;17.63;12.95;;;11.20;99.90;;;;;;5096392;28;20054;-86
2021/08/13 04:18:41;;;;;;;14.13;11.77;;;11.20;99.90;;;;;;5078971;28;20048;-86
2021/08/13 04:21:08;;;;;;;15.50;12.15;;;11.30;99.90;;;;;;5096559;28;20040;-86
2021/08/13 04:23:35;;;;;;;16.13;12.45;;;11.40;99.90;;;;;;5096393;28;20514;-86
2021/08/13 04:26:02;;;;;;;15.43;12.88;;;11.40;99.90;;;;;;5095513;28;20051;-86
2021/08/13 04:28:29;;;;;;;19.48;12.88;;;11.50;99.90;;;;;;5078038;28;20062;-86
2021/08/13 04:30:55;;;;;;;19.77;13.70;;;11.50;99.90;;;;;;5096235;28;20123;-87
2021/08/13 04:33:22;;;;;;;20.50;13.35;;;11.40;99.90;;;;;;5078415;28;20063;-86
2021/08/13 04:35:49;;;;;;;15.40;12.35;;;11.50;99.90;;;;;;5078355;28;20492;-87
2021/08/13 04:38:16;;;;;;;19.58;14.82;;;11.50;99.90;;;;;;5078236;28;20055;-86
2021/08/13 04:40:44;;;;;;;16.85;13.10;;;11.60;99.90;;;;;;5096050;28;20048;-86
2021/08/13 04:43:11;;;;;;;16.30;12.23;;;11.60;99.90;;;;;;5078308;28;20056;-87
2021/08/13 04:45:37;;;;;;;21.05;13.65;;;11.70;99.90;;;;;;5077791;28;20040;-87
2021/08/13 04:48:04;;;;;;;18.17;13.73;;;11.60;99.90;;;;;;5078219;28;20484;-86
2021/08/13 04:50:31;;;;;;;29.98;17.50;;;11.70;99.90;;;;;;5078532;28;20080;-86
2021/08/13 04:52:58;;;;;;;23.83;17.00;;;11.70;99.90;;;;;;5078371;28;20050;-86
2021/08/13 04:55:26;;;;;;;18.33;15.98;;;11.80;99.90;;;;;;5095482;28;20055;-86
2021/08/13 04:57:54;;;;;;;19.58;13.98;;;11.80;99.90;;;;;;5078195;28;20087;-86
2021/08/13 05:00:22;;;;;;;18.23;14.50;;;12.00;99.90;;;;;;5078655;28;20575;-86
2021/08/13 05:02:49;;;;;;;21.05;15.20;;;12.10;99.90;;;;;;5078567;28;20048;-87
2021/08/13 05:05:17;;;;;;;16.65;14.18;;;12.20;99.90;;;;;;5102897;28;20067;-87
2021/08/13 05:07:44;;;;;;;23.27;15.63;;;12.30;99.90;;;;;;5091314;28;20079;-84
2021/08/13 05:10:14;;;;;;;17.60;14.10;;;12.30;99.90;;;;;;5096001;28;20050;-86
2021/08/13 05:12:42;;;;;;;22.40;16.15;;;12.40;99.90;;;;;;5078226;28;20552;-86
2021/08/13 05:15:10;;;;;;;19.27;14.57;;;12.40;99.90;;;;;;5077856;28;20048;-86
2021/08/13 05:17:37;;;;;;;22.73;18.10;;;12.50;99.90;;;;;;5095557;28;20048;-87
2021/08/13 05:20:06;;;;;;;20.52;17.58;;;12.60;99.90;;;;;;5077718;28;20051;-86
2021/08/13 05:22:34;;;;;;;22.25;15.05;;;12.70;99.90;;;;;;5077444;28;20131;-86
2021/08/13 05:25:08;;;;;;;24.02;19.90;;;12.80;99.90;;;;;;5077500;28;20070;-86
2021/08/13 05:27:35;;;;;;;27.27;21.98;;;13.00;99.90;;;;;;5077895;28;20524;-87
2021/08/13 05:30:04;;;;;;;19.40;16.00;;;13.80;99.90;;;;;;5077664;28;20052;-87
2021/08/13 05:32:30;;;;;;;13.70;10.23;;;14.80;99.90;;;;;;5077721;28;20044;-88
2021/08/13 05:34:57;;;;;;;8.82;8.02;;;15.40;99.90;;;;;;5077502;28;20130;-86
2021/08/13 05:37:24;;;;;;;10.30;7.43;;;15.50;99.90;;;;;;5077829;28;20062;-87
2021/08/13 05:39:50;;;;;;;7.53;6.35;;;16.60;99.90;;;;;;5077369;28;20143;-87
2021/08/13 05:42:17;;;;;;;8.95;6.07;;;17.80;99.90;;;;;;5077198;28;20044;-87
2021/08/13 05:44:44;;;;;;;11.70;6.68;;;18.60;99.90;;;;;;5094300;28;20052;-87
2021/08/13 05:47:11;;;;;;;7.95;5.88;;;19.50;99.90;;;;;;5077281;28;20412;-87
2021/08/13 05:49:38;;;;;;;6.75;6.07;;;20.40;99.90;;;;;;5076161;28;20484;-87
2021/08/13 05:52:05;;;;;;;6.22;5.50;;;20.90;99.90;;;;;;5077117;28;20135;-87
2021/08/13 05:54:32;;;;;;;7.57;5.80;;;21.60;99.90;;;;;;5076846;28;20133;-87
2021/08/13 05:56:58;;;;;;;9.88;5.57;;;22.10;99.90;;;;;;5076771;28;20048;-87
2021/08/13 05:59:25;;;;;;;7.80;5.80;;;22.70;99.90;;;;;;5077122;28;20055;-87
2021/08/13 06:01:52;;;;;;;7.53;5.35;;;23.60;99.90;;;;;;5076963;28;20054;-87
2021/08/13 06:04:19;;;;;;;6.90;5.38;;;24.40;99.90;;;;;;5076674;28;20094;-87
2021/08/13 06:06:46;;;;;;;5.68;5.18;;;25.10;99.90;;;;;;5076274;28;20485;-87
2021/08/13 06:09:13;;;;;;;5.65;5.10;;;25.60;99.90;;;;;;5076299;28;20043;-86
2021/08/13 06:11:40;;;;;;;7.03;5.85;;;26.00;99.90;;;;;;5094480;28;20135;-87
2021/08/13 06:14:07;;;;;;;5.57;4.90;;;25.70;99.90;;;;;;5077004;28;20058;-87
2021/08/13 06:16:34;;;;;;;13.48;5.43;;;25.50;99.90;;;;;;5076533;28;20056;-87
2021/08/13 06:19:00;;;;;;;7.18;5.50;;;25.50;99.90;;;;;;5076715;28;20051;-86
2021/08/13 06:21:31;;;;;;;17.35;6.05;;;26.40;99.90;;;;;;5094562;28;20048;-88
2021/08/13 06:23:58;;;;;;;5.85;4.93;;;25.70;99.90;;;;;;5081543;28;20472;-87
2021/08/13 06:26:25;;;;;;;9.63;5.30;;;26.20;99.90;;;;;;5090766;28;20087;-87
2021/08/13 06:28:51;;;;;;;6.35;5.68;;;26.60;99.90;;;;;;5094723;28;20052;-87
2021/08/13 06:31:18;;;;;;;8.75;5.63;;;26.30;99.90;;;;;;5076147;28;20044;-87
2021/08/13 06:33:45;;;;;;;13.77;6.50;;;25.90;99.90;;;;;;5076003;28;20094;-86
2021/08/13 06:36:12;;;;;;;16.25;6.32;;;26.10;99.90;;;;;;5076020;28;20050;-87
2021/08/13 06:38:39;;;;;;;15.48;6.50;;;26.20;99.90;;;;;;5075720;28;20476;-86
2021/08/13 06:41:06;;;;;;;12.45;6.13;;;26.00;99.90;;;;;;5093828;28;20044;-87
2021/08/13 06:43:32;;;;;;;14.88;6.32;;;25.80;99.90;;;;;;5076418;28;20102;-87
2021/08/13 06:45:59;;;;;;;9.30;6.35;;;25.10;99.90;;;;;;5075908;28;20044;-87
2021/08/13 06:48:26;;;;;;;11.23;5.65;;;25.60;99.90;;;;;;5075566;28;20510;-87
2021/08/13 06:50:53;;;;;;;9.45;5.57;;;25.90;99.90;;;;;;5075928;28;20054;-87
2021/08/13 06:53:20;;;;;;;9.73;5.72;;;26.70;99.90;;;;;;5093555;28;20058;-87
2021/08/13 06:55:46;;;;;;;8.43;5.95;;;27.40;99.90;;;;;;5075743;28;20050;-87
2021/08/13 06:58:13;;;;;;;9.13;6.05;;;28.10;99.90;;;;;;5093600;28;20052;-87
2021/08/13 07:00:40;;;;;;;12.38;5.60;;;29.00;97.40;;;;;;5075823;28;20047;-87
2021/08/13 07:03:08;;;;;;;6.28;5.13;;;29.10;95.20;;;;;;5075922;28;20075;-87
2021/08/13 07:05:35;;;;;;;7.50;5.63;;;29.40;94.50;;;;;;5075967;28;20109;-87
2021/08/13 07:08:09;;;;;;;10.48;6.00;;;29.70;93.30;;;;;;5075659;28;20054;-87
2021/08/13 07:10:37;;;;;;;18.98;6.50;;;30.10;92.30;;;;;;5075630;28;20048;-87
2021/08/13 07:13:04;;;;;;;18.63;7.35;;;30.40;91.70;;;;;;5075521;28;20056;-87
2021/08/13 07:15:31;;;;;;;17.83;7.00;;;30.40;89.40;;;;;;5093092;28;20040;-87
2021/08/13 07:17:58;;;;;;;19.50;6.97;;;30.20;88.70;;;;;;5075552;28;20506;-86
2021/08/13 07:20:24;;;;;;;11.18;5.70;;;30.10;89.20;;;;;;5074930;28;20040;-87
2021/08/13 07:22:52;;;;;;;18.25;6.13;;;29.70;90.70;;;;;;5075557;28;20058;-87
2021/08/13 07:25:20;;;;;;;24.10;7.35;;;29.90;90.80;;;;;;5075627;28;20238;-87
2021/08/13 07:27:47;;;;;;;19.05;7.05;;;29.40;91.40;;;;;;5075263;28;20066;-87
2021/08/13 07:30:15;;;;;;;22.35;7.30;;;28.80;92.20;;;;;;5075523;28;20401;-87
2021/08/13 07:32:45;;;;;;;25.70;7.35;;;28.60;92.70;;;;;;5075031;28;20040;-87
2021/08/13 07:35:13;;;;;;;20.60;7.85;;;28.90;92.60;;;;;;5075426;28;20134;-87
2021/08/13 07:37:40;;;;;;;18.77;7.60;;;29.80;91.30;;;;;;5074989;28;20059;-87
2021/08/13 07:40:08;;;;;;;19.48;7.75;;;30.80;90.00;;;;;;5075256;28;20090;-88
2021/08/13 07:42:36;;;;;;;25.35;7.63;;;32.00;88.00;;;;;;5076581;28;20048;-86
2021/08/13 07:45:04;;;;;;;31.63;8.38;;;32.50;84.30;;;;;;5105414;28;20063;-86
2021/08/13 07:47:31;;;;;;;26.83;8.57;;;32.10;82.20;;;;;;5076279;28;20048;-86
2021/08/13 07:49:59;;;;;;;23.38;8.40;;;32.90;81.10;;;;;;5075029;28;20488;-87
2021/08/13 07:52:26;;;;;;;26.02;9.00;;;33.50;79.00;;;;;;5075301;28;20044;-87
2021/08/13 07:54:52;;;;;;;19.55;7.68;;;34.20;78.00;;;;;;5092992;28;20056;-86
2021/08/13 07:57:19;;;;;;;14.60;7.10;;;34.70;77.10;;;;;;5075280;28;20102;-85
2021/08/13 07:59:46;;;;;;;14.02;7.13;;;35.60;72.20;;;;;;5074995;28;20377;-85
2021/08/13 08:02:13;;;;;;;12.43;6.43;;;36.30;70.70;;;;;;5074669;28;20477;-86
2021/08/13 08:04:40;;;;;;;15.90;6.68;;;36.50;67.50;;;;;;5092742;28;20083;-84
2021/08/13 08:07:07;;;;;;;11.40;6.18;;;37.50;67.20;;;;;;5093135;28;20460;-90
2021/08/13 08:09:34;;;;;;;11.15;6.32;;;38.30;64.40;;;;;;5075699;28;20496;-87
2021/08/13 08:12:01;;;;;;;9.88;6.40;;;37.80;63.30;;;;;;5075721;28;20507;-87
2021/08/13 08:14:28;;;;;;;6.60;5.72;;;37.20;64.30;;;;;;5075550;28;20054;-88
2021/08/13 08:16:55;;;;;;;7.28;5.32;;;36.70;65.20;;;;;;5075609;28;20050;-87
2021/08/13 08:19:22;;;;;;;6.85;5.60;;;37.20;64.50;;;;;;5075447;28;20139;-88
2021/08/13 08:21:49;;;;;;;9.68;5.88;;;37.40;65.30;;;;;;5092845;28;20140;-88
2021/08/13 08:24:16;;;;;;;10.05;5.95;;;38.00;63.90;;;;;;5093231;28;20044;-86
2021/08/13 08:26:42;;;;;;;7.65;5.68;;;37.70;64.00;;;;;;5092915;28;20516;-89
2021/08/13 08:29:09;;;;;;;7.47;5.45;;;38.60;62.30;;;;;;5075332;28;20036;-87
2021/08/13 08:31:36;;;;;;;9.20;5.32;;;39.30;61.30;;;;;;5077240;28;20079;-86
2021/08/13 08:34:03;;;;;;;5.47;4.97;;;40.30;59.80;;;;;;5078614;28;20051;-87
2021/08/13 08:36:33;;;;;;;6.72;4.45;;;40.30;57.10;;;;;;5078970;28;20048;-87
2021/08/13 08:39:00;;;;;;;6.10;4.78;;;40.20;57.90;;;;;;5079537;28;20075;-88
2021/08/13 08:41:28;;;;;;;7.00;4.55;;;39.90;56.30;;;;;;5079234;28;20111;-86
2021/08/13 08:43:55;;;;;;;6.07;4.20;;;40.00;54.80;;;;;;5096774;28;20138;-85
2021/08/13 08:46:23;;;;;;;6.00;4.13;;;40.80;55.50;;;;;;5078673;28;20130;-87
2021/08/13 08:48:53;;;;;;;8.05;4.68;;;41.30;53.30;;;;;;5078945;28;20485;-86
2021/08/13 08:51:21;;;;;;;7.78;4.30;;;40.80;52.70;;;;;;5078572;28;20055;-86
2021/08/13 08:53:50;;;;;;;6.38;4.18;;;41.50;53.40;;;;;;5078447;28;20051;-86
2021/08/13 08:56:20;;;;;;;6.00;4.20;;;42.30;53.00;;;;;;5078362;28;20307;-86
2021/08/13 08:58:48;;;;;;;5.28;4.38;;;41.90;53.50;;;;;;5078642;28;20048;-86
2021/08/13 09:01:15;;;;;;;5.35;4.85;;;42.30;53.30;;;;;;5078313;28;20050;-88
2021/08/13 09:03:44;;;;;;;5.70;4.63;;;41.40;52.00;;;;;;5091879;28;20051;-86
2021/08/13 09:06:11;;;;;;;4.80;4.43;;;40.80;51.70;;;;;;5083615;28;20040;-86
2021/08/13 09:08:38;;;;;;;4.47;4.07;;;41.40;52.70;;;;;;5077632;28;20222;-86
2021/08/13 09:11:07;;;;;;;5.15;4.45;;;42.50;52.10;;;;;;5077851;28;20078;-86
2021/08/13 09:13:35;;;;;;;5.50;5.00;;;42.20;50.20;;;;;;5077976;28;20043;-85
2021/08/13 09:16:10;;;;;;;4.97;4.50;;;42.30;49.50;;;;;;5095526;28;20412;-89
2021/08/13 09:18:37;;;;;;;4.97;4.47;;;41.70;50.70;;;;;;5077720;28;20059;-89
2021/08/13 09:21:04;;;;;;;5.13;4.70;;;40.20;51.70;;;;;;5077518;28;20128;-86
2021/08/13 09:23:42;;;;;;;7.30;4.57;;;41.00;53.10;;;;;;5077569;28;20360;-88
2021/08/13 09:26:22;;;;;;;5.65;5.25;;;41.00;52.90;;;;;;5095465;28;20127;-87
2021/08/13 09:28:59;;;;;;;6.55;5.63;;;41.20;52.10;;;;;;5095563;28;20079;-86
2021/08/13 09:31:36;;;;;;;5.60;5.13;;;41.40;51.30;;;;;;5095074;28;20048;-87
2021/08/13 09:34:11;;;;;;;5.85;5.35;;;42.60;50.70;;;;;;5077888;28;20131;-86
2021/08/13 09:36:53;;;;;;;6.78;5.57;;;43.90;49.10;;;;;;5079317;28;20063;-87
2021/08/13 09:39:29;;;;;;;8.45;5.57;;;43.10;48.40;;;;;;5095606;28;20126;-87
2021/08/13 09:41:57;;;;;;;5.60;5.20;;;42.10;49.00;;;;;;5076947;28;20536;-86
2021/08/13 09:44:31;;;;;;;5.80;5.40;;;41.40;49.50;;;;;;5076882;28;20575;-86
2021/08/13 09:46:59;;;;;;;7.93;5.22;;;41.00;50.30;;;;;;5077114;28;20385;-89
2021/08/13 09:49:38;;;;;;;7.50;5.80;;;41.50;51.20;;;;;;5076779;28;20508;-87
2021/08/13 09:52:16;;;;;;;5.80;5.38;;;41.90;50.60;;;;;;5077385;28;20136;-88
2021/08/13 09:54:44;;;;;;;5.70;5.20;;;43.30;48.80;;;;;;5076535;28;20047;-86
2021/08/13 09:57:16;;;;;;;6.35;5.75;;;44.20;47.90;;;;;;5077038;28;20054;-87
2021/08/13 10:00:04;;;;;;;6.05;5.53;;;43.50;47.20;;;;;;5076898;28;20050;-87
2021/08/13 10:02:36;;;;;;;16.20;6.22;;;43.80;47.60;;;;;;5076589;28;20052;-87
2021/08/13 10:05:16;;;;;;;9.45;5.70;;;43.30;46.50;;;;;;5076862;28;20075;-90
2021/08/13 10:07:59;;;;;;;6.13;5.63;;;42.60;48.40;;;;;;5076525;28;20050;-87
2021/08/13 10:10:34;;;;;;;6.50;5.90;;;42.10;48.30;;;;;;5094365;28;20048;-88
2021/08/13 10:13:01;;;;;;;7.13;6.43;;;43.50;48.20;;;;;;5077068;28;20058;-89
2021/08/13 10:15:31;;;;;;;6.50;5.90;;;43.00;47.30;;;;;;5094443;28;20050;-87
2021/08/13 10:18:00;;;;;;;7.05;5.93;;;43.10;47.70;;;;;;5076486;28;20128;-87
2021/08/13 10:20:29;;;;;;;7.05;6.35;;;43.60;46.10;;;;;;5094857;28;20044;-87
2021/08/13 10:22:56;;;;;;;6.47;5.88;;;43.20;47.10;;;;;;5089957;28;20095;-88
2021/08/13 10:25:26;;;;;;;9.10;5.78;;;43.40;47.00;;;;;;5090619;28;20072;-87
2021/08/13 10:27:53;;;;;;;6.97;5.57;;;43.80;47.70;;;;;;5079197;28;20480;-90
2021/08/13 10:30:22;;;;;;;8.13;5.93;;;43.50;46.60;;;;;;5076253;28;20068;-87
2021/08/13 10:32:56;;;;;;;6.63;6.07;;;43.40;46.50;;;;;;5094242;28;20138;-87
2021/08/13 10:35:29;;;;;;;7.22;6.63;;;43.50;46.40;;;;;;5076381;28;20142;-88
2021/08/13 10:37:58;;;;;;;;;;;43.50;45.10;;;;;;5076524;28;20052;-87
2021/08/13 10:40:25;;;;;;;7.00;6.38;;;41.70;46.70;;;;;;5093782;28;19920;-89
2021/08/13 10:42:54;;;;;;;7.55;6.78;;;41.00;48.70;;;;;;5076342;28;20496;-86
2021/08/13 10:45:23;;;;;;;6.95;6.30;;;40.50;48.50;;;;;;5094047;28;20040;-87
2021/08/13 10:48:00;;;;;;;6.80;6.20;;;41.30;48.90;;;;;;5076186;28;20043;-88
2021/08/13 10:50:27;;;;;;;6.78;6.10;;;41.70;48.60;;;;;;5076255;28;20047;-87
2021/08/13 10:52:54;;;;;;;7.13;6.45;;;40.50;48.10;;;;;;5093866;28;20532;-88
2021/08/13 10:55:52;;;;;;;7.45;6.72;;;38.90;49.60;;;;;;5075719;28;20044;-86
2021/08/13 10:58:43;;;;;;;8.48;6.60;;;38.10;50.90;;;;;;5093855;28;20048;-86
2021/08/13 11:01:15;;;;;;;8.45;6.72;;;36.90;52.10;;;;;;5076071;28;20044;-86
2021/08/13 11:03:43;;;;;;;12.18;6.38;;;36.80;53.00;;;;;;5075978;28;20059;-86
2021/08/13 11:06:11;;;;;;;7.50;6.47;;;36.70;53.90;;;;;;5093594;28;20048;-85
2021/08/13 11:08:40;;;;;;;8.02;7.30;;;34.80;56.90;;;;;;5075821;28;20048;-86
2021/08/13 11:11:12;;;;;;;9.35;7.03;;;34.30;56.70;;;;;;5075924;28;20468;-86
2021/08/13 11:13:44;;;;;;;7.95;7.10;;;34.10;59.30;;;;;;5075437;28;20071;-85
2021/08/13 11:16:28;;;;;;;7.72;6.75;;;34.00;58.70;;;;;;5075414;28;20104;-86
2021/08/13 11:18:57;;;;;;;7.97;7.18;;;34.50;57.90;;;;;;5075813;28;20472;-86
2021/08/13 11:21:51;;;;;;;6.65;6.05;;;34.70;57.40;;;;;;5075651;28;20044;-86
2021/08/13 11:24:20;;;;;;;7.22;6.53;;;34.80;60.30;;;;;;5075071;28;20051;-85
2021/08/13 11:26:47;;;;;;;7.47;6.55;;;34.60;57.60;;;;;;5075168;28;20569;-85
2021/08/13 11:29:37;;;;;;;6.63;5.93;;;34.50;58.10;;;;;;5093350;28;20126;-85
2021/08/13 11:32:13;;;;;;;7.72;5.78;;;34.70;57.80;;;;;;5093326;28;20449;-85
2021/08/13 11:35:05;;;;;;;6.60;6.10;;;34.90;58.40;;;;;;5074889;28;20051;-86
2021/08/13 11:37:34;;;;;;;6.40;5.80;;;34.80;56.80;;;;;;5092832;28;20407;-86
2021/08/13 11:40:12;;;;;;;6.70;6.05;;;35.00;58.40;;;;;;5076061;28;20048;-86
2021/08/13 11:42:53;;;;;;;6.63;5.65;;;35.70;57.80;;;;;;5105057;28;20040;-86
2021/08/13 11:45:21;;;;;;;6.07;5.57;;;36.10;56.30;;;;;;5079585;28;20396;-85
2021/08/13 11:47:51;;;;;;;6.22;5.72;;;35.20;56.00;;;;;;5075272;28;20123;-86
2021/08/13 11:50:20;;;;;;;5.53;5.03;;;35.50;57.20;;;;;;5075469;28;20139;-85
2021/08/13 11:52:48;;;;;;;5.47;4.97;;;35.80;57.20;;;;;;5093099;28;20484;-85
2021/08/13 11:55:22;;;;;;;5.10;4.70;;;35.80;56.30;;;;;;5075111;28;20043;-86
2021/08/13 11:57:51;;;;;;;5.13;4.65;;;35.70;58.20;;;;;;5074031;28;20052;-86
2021/08/13 12:00:23;;;;;;;4.68;4.28;;;35.70;57.20;;;;;;5093007;28;20079;-86
2021/08/13 12:03:08;;;;;;;4.95;4.55;;;35.70;56.90;;;;;;5075222;28;20128;-86
2021/08/13 12:05:40;;;;;;;4.93;4.32;;;35.50;59.10;;;;;;5093488;28;20322;-86
2021/08/13 12:08:09;;;;;;;5.57;4.72;;;35.40;57.70;;;;;;5098514;28;20117;-85
2021/08/13 12:10:36;;;;;;;11.88;4.70;;;35.20;57.70;;;;;;5078909;28;20044;-86
2021/08/13 12:13:08;;;;;;;5.75;4.78;;;34.60;57.60;;;;;;5079241;28;20044;-86
2021/08/13 12:15:38;;;;;;;5.22;4.68;;;33.70;58.80;;;;;;5096336;28;20051;-86
2021/08/13 12:18:06;;;;;;;4.85;4.45;;;33.40;59.50;;;;;;5078683;28;20480;-87
2021/08/13 12:20:35;;;;;;;5.60;4.95;;;33.30;60.10;;;;;;5078721;28;20051;-85
2021/08/13 12:23:10;;;;;;;4.45;4.15;;;33.40;60.60;;;;;;5078738;28;20048;-88
2021/08/13 12:25:42;;;;;;;5.22;4.72;;;33.50;60.10;;;;;;5078663;28;20415;-85
2021/08/13 12:28:11;;;;;;;5.43;4.40;;;33.30;59.10;;;;;;5078430;28;20093;-85
2021/08/13 12:30:39;;;;;;;11.55;5.38;;;33.10;59.00;;;;;;5078729;28;20499;-88
2021/08/13 12:33:17;;;;;;;6.60;4.38;;;32.70;59.30;;;;;;5078613;28;20047;-89
2021/08/13 12:35:47;;;;;;;7.00;4.03;;;32.40;61.50;;;;;;5078488;28;20143;-85
2021/08/13 12:38:15;;;;;;;16.50;4.88;;;32.40;60.90;;;;;;5078470;28;20052;-88
2021/08/13 12:40:54;;;;;;;7.25;4.82;;;32.20;59.50;;;;;;5078354;28;20058;-86
2021/08/13 12:43:21;;;;;;;6.30;4.80;;;32.50;60.40;;;;;;5078426;28;20423;-86
2021/08/13 12:45:51;;;;;;;6.60;4.07;;;32.80;61.00;;;;;;5079030;28;20570;-85
2021/08/13 12:48:20;;;;;;;4.82;4.43;;;33.00;59.50;;;;;;5078783;28;20393;-86
2021/08/13 12:50:58;;;;;;;5.18;4.30;;;32.80;59.40;;;;;;5078206;28;20138;-86